sensor_id;sensor_type;location;lat;lon;timestamp;pressure;altitude;pressure_sealevel;temperature;humidity
45813;BME280;31519;45.408;10.962;2022-11-20T00:01:36;99988.38;;;12.10;72.58
45813;BME280;31519;45.408;10.962;2022-11-20T00:04:05;99983.63;;;12.36;71.79
45813;BME280;31519;45.408;10.962;2022-11-20T00:06:32;99992.94;;;12.10;72.67
45813;BME280;31519;45.408;10.962;2022-11-20T00:09:01;99986.66;;;12.06;72.96
45813;BME280;31519;45.408;10.962;2022-11-20T00:11:30;99994.56;;;12.02;73.15
45813;BME280;31519;45.408;10.962;2022-11-20T00:14:00;99995.22;;;11.99;73.27
45813;BME280;31519;45.408;10.962;2022-11-20T00:16:32;99986.66;;;12.06;73.19
45813;BME280;31519;45.408;10.962;2022-11-20T00:19:01;99990.19;;;11.97;73.21
45813;BME280;31519;45.408;10.962;2022-11-20T00:21:30;99995.47;;;11.85;73.38
45813;BME280;31519;45.408;10.962;2022-11-20T00:23:58;99994.25;;;12.04;73.19
45813;BME280;31519;45.408;10.962;2022-11-20T00:26:28;99989.41;;;11.76;73.59
45813;BME280;31519;45.408;10.962;2022-11-20T00:28:58;100001.78;;;11.81;73.91
45813;BME280;31519;45.408;10.962;2022-11-20T00:31:28;99990.44;;;11.84;74.03
45813;BME280;31519;45.408;10.962;2022-11-20T00:33:56;100004.97;;;11.66;74.53
45813;BME280;31519;45.408;10.962;2022-11-20T00:36:27;100009.84;;;11.64;74.58
45813;BME280;31519;45.408;10.962;2022-11-20T00:38:57;100011.56;;;11.60;74.88
45813;BME280;31519;45.408;10.962;2022-11-20T00:41:28;100016.50;;;11.49;75.08
45813;BME280;31519;45.408;10.962;2022-11-20T00:43:57;100019.28;;;11.61;74.75
45813;BME280;31519;45.408;10.962;2022-11-20T00:46:27;100014.41;;;11.63;73.96
45813;BME280;31519;45.408;10.962;2022-11-20T00:48:56;100015.69;;;11.57;72.96
45813;BME280;31519;45.408;10.962;2022-11-20T00:51:26;100023.03;;;11.60;72.82
45813;BME280;31519;45.408;10.962;2022-11-20T00:53:56;100019.41;;;11.35;73.55
45813;BME280;31519;45.408;10.962;2022-11-20T00:56:24;100025.19;;;11.37;72.73
45813;BME280;31519;45.408;10.962;2022-11-20T00:58:53;100020.66;;;11.67;71.55
45813;BME280;31519;45.408;10.962;2022-11-20T01:01:24;100018.53;;;11.52;72.36
45813;BME280;31519;45.408;10.962;2022-11-20T01:03:56;100023.44;;;11.41;72.15
45813;BME280;31519;45.408;10.962;2022-11-20T01:06:26;100012.81;;;11.33;71.50
45813;BME280;31519;45.408;10.962;2022-11-20T01:08:57;100015.00;;;11.39;71.44
45813;BME280;31519;45.408;10.962;2022-11-20T01:11:34;100008.25;;;11.33;71.65
45813;BME280;31519;45.408;10.962;2022-11-20T01:14:05;100022.38;;;11.34;71.36
45813;BME280;31519;45.408;10.962;2022-11-20T01:16:37;100019.44;;;11.27;71.96
45813;BME280;31519;45.408;10.962;2022-11-20T01:19:09;100016.88;;;11.39;71.02
45813;BME280;31519;45.408;10.962;2022-11-20T01:21:43;100023.06;;;11.22;71.55
45813;BME280;31519;45.408;10.962;2022-11-20T01:24:15;100021.72;;;11.37;71.08
45813;BME280;31519;45.408;10.962;2022-11-20T01:26:45;100014.69;;;11.41;70.15
45813;BME280;31519;45.408;10.962;2022-11-20T01:29:21;100019.34;;;11.44;69.76
45813;BME280;31519;45.408;10.962;2022-11-20T01:31:50;100020.19;;;11.36;69.72
45813;BME280;31519;45.408;10.962;2022-11-20T01:34:21;100019.13;;;11.20;69.94
45813;BME280;31519;45.408;10.962;2022-11-20T01:36:51;100022.38;;;11.34;69.19
45813;BME280;31519;45.408;10.962;2022-11-20T01:39:23;100022.28;;;11.22;70.13
45813;BME280;31519;45.408;10.962;2022-11-20T01:41:53;100027.88;;;11.29;70.02
45813;BME280;31519;45.408;10.962;2022-11-20T01:44:54;100027.19;;;11.02;70.71
45813;BME280;31519;45.408;10.962;2022-11-20T01:47:33;100025.94;;;11.00;70.78
45813;BME280;31519;45.408;10.962;2022-11-20T01:50:11;100027.81;;;11.08;70.67
45813;BME280;31519;45.408;10.962;2022-11-20T01:52:57;100027.06;;;10.99;71.00
45813;BME280;31519;45.408;10.962;2022-11-20T01:55:31;100032.22;;;10.95;70.92
45813;BME280;31519;45.408;10.962;2022-11-20T01:58:01;100025.31;;;11.03;70.79
45813;BME280;31519;45.408;10.962;2022-11-20T02:00:30;100024.59;;;11.23;70.62
45813;BME280;31519;45.408;10.962;2022-11-20T02:03:01;100031.53;;;11.16;70.96
45813;BME280;31519;45.408;10.962;2022-11-20T02:08:04;100025.53;;;10.81;72.14
45813;BME280;31519;45.408;10.962;2022-11-20T02:10:34;100022.50;;;10.91;71.70
45813;BME280;31519;45.408;10.962;2022-11-20T02:13:02;100022.19;;;10.92;71.75
45813;BME280;31519;45.408;10.962;2022-11-20T02:15:50;100012.50;;;10.88;71.83
45813;BME280;31519;45.408;10.962;2022-11-20T02:18:20;100014.38;;;10.87;71.70
45813;BME280;31519;45.408;10.962;2022-11-20T02:20:53;100028.78;;;10.95;71.58
45813;BME280;31519;45.408;10.962;2022-11-20T02:23:29;100026.25;;;10.98;71.32
45813;BME280;31519;45.408;10.962;2022-11-20T02:26:02;100018.31;;;10.73;72.22
45813;BME280;31519;45.408;10.962;2022-11-20T02:28:32;100023.16;;;10.88;72.04
45813;BME280;31519;45.408;10.962;2022-11-20T02:31:01;100017.97;;;10.91;71.95
45813;BME280;31519;45.408;10.962;2022-11-20T02:33:29;100017.78;;;10.96;71.18
45813;BME280;31519;45.408;10.962;2022-11-20T02:35:57;100018.97;;;10.61;72.07
45813;BME280;31519;45.408;10.962;2022-11-20T02:38:25;100019.56;;;10.84;71.43
45813;BME280;31519;45.408;10.962;2022-11-20T02:40:53;100027.41;;;10.80;71.25
45813;BME280;31519;45.408;10.962;2022-11-20T02:43:23;100027.72;;;10.70;71.23
45813;BME280;31519;45.408;10.962;2022-11-20T02:45:51;100026.13;;;10.86;71.17
45813;BME280;31519;45.408;10.962;2022-11-20T02:48:19;100028.03;;;10.68;71.49
45813;BME280;31519;45.408;10.962;2022-11-20T02:50:48;100027.69;;;10.87;71.26
45813;BME280;31519;45.408;10.962;2022-11-20T02:53:16;100031.31;;;10.83;70.88
45813;BME280;31519;45.408;10.962;2022-11-20T02:55:44;100028.69;;;10.57;71.34
45813;BME280;31519;45.408;10.962;2022-11-20T02:58:12;100031.19;;;10.62;71.45
45813;BME280;31519;45.408;10.962;2022-11-20T03:00:40;100027.28;;;10.51;71.82
45813;BME280;31519;45.408;10.962;2022-11-20T03:03:08;100026.03;;;10.57;72.13
45813;BME280;31519;45.408;10.962;2022-11-20T03:05:37;100019.91;;;10.48;72.14
45813;BME280;31519;45.408;10.962;2022-11-20T03:08:05;100024.13;;;10.66;71.94
45813;BME280;31519;45.408;10.962;2022-11-20T03:10:34;100023.69;;;10.38;72.72
45813;BME280;31519;45.408;10.962;2022-11-20T03:13:02;100029.94;;;10.34;73.20
45813;BME280;31519;45.408;10.962;2022-11-20T03:15:30;100029.47;;;10.40;72.22
45813;BME280;31519;45.408;10.962;2022-11-20T03:17:58;100031.50;;;10.35;72.14
45813;BME280;31519;45.408;10.962;2022-11-20T03:20:26;100026.50;;;10.42;71.88
45813;BME280;31519;45.408;10.962;2022-11-20T03:22:55;100023.69;;;10.38;71.88
45813;BME280;31519;45.408;10.962;2022-11-20T03:25:23;100029.63;;;10.52;71.81
45813;BME280;31519;45.408;10.962;2022-11-20T03:27:51;100030.88;;;10.38;71.28
45813;BME280;31519;45.408;10.962;2022-11-20T03:30:19;100038.09;;;10.37;71.56
45813;BME280;31519;45.408;10.962;2022-11-20T03:32:47;100033.25;;;10.31;71.38
45813;BME280;31519;45.408;10.962;2022-11-20T03:35:16;100036.50;;;10.36;71.37
45813;BME280;31519;45.408;10.962;2022-11-20T03:37:44;100033.09;;;10.36;71.08
45813;BME280;31519;45.408;10.962;2022-11-20T03:40:13;100044.03;;;10.26;72.01
45813;BME280;31519;45.408;10.962;2022-11-20T03:42:41;100040.75;;;10.37;70.87
45813;BME280;31519;45.408;10.962;2022-11-20T03:45:17;100042.13;;;10.17;70.80
45813;BME280;31519;45.408;10.962;2022-11-20T03:47:46;100040.75;;;10.20;70.08
45813;BME280;31519;45.408;10.962;2022-11-20T03:50:14;100045.44;;;10.23;69.02
45813;BME280;31519;45.408;10.962;2022-11-20T03:52:42;100052.31;;;10.24;68.41
45813;BME280;31519;45.408;10.962;2022-11-20T03:55:10;100053.41;;;10.23;67.61
45813;BME280;31519;45.408;10.962;2022-11-20T03:57:38;100060.66;;;10.48;67.46
45813;BME280;31519;45.408;10.962;2022-11-20T04:00:08;100067.34;;;10.20;68.40
45813;BME280;31519;45.408;10.962;2022-11-20T04:02:36;100072.53;;;10.16;68.17
45813;BME280;31519;45.408;10.962;2022-11-20T04:05:05;100077.06;;;10.33;67.89
45813;BME280;31519;45.408;10.962;2022-11-20T04:07:33;100070.81;;;10.38;67.82
45813;BME280;31519;45.408;10.962;2022-11-20T04:10:02;100080.81;;;10.23;68.49
45813;BME280;31519;45.408;10.962;2022-11-20T04:12:33;100081.75;;;10.28;69.16
45813;BME280;31519;45.408;10.962;2022-11-20T04:15:02;100081.75;;;10.28;68.90
45813;BME280;31519;45.408;10.962;2022-11-20T04:17:30;100076.69;;;10.09;69.24
45813;BME280;31519;45.408;10.962;2022-11-20T04:19:58;100080.81;;;10.23;69.56
45813;BME280;31519;45.408;10.962;2022-11-20T04:22:27;100074.94;;;9.96;70.88
45813;BME280;31519;45.408;10.962;2022-11-20T04:24:55;100079.13;;;9.79;71.44
45813;BME280;31519;45.408;10.962;2022-11-20T04:27:23;100086.72;;;10.03;71.28
45813;BME280;31519;45.408;10.962;2022-11-20T04:29:51;100083.56;;;10.01;71.65
45813;BME280;31519;45.408;10.962;2022-11-20T04:32:19;100079.06;;;10.10;71.74
45813;BME280;31519;45.408;10.962;2022-11-20T04:34:47;100072.69;;;10.20;71.01
45813;BME280;31519;45.408;10.962;2022-11-20T04:37:15;100075.09;;;9.91;72.33
45813;BME280;31519;45.408;10.962;2022-11-20T04:39:44;100070.72;;;9.95;72.57
45813;BME280;31519;45.408;10.962;2022-11-20T04:42:13;100075.22;;;9.86;72.88
45813;BME280;31519;45.408;10.962;2022-11-20T04:44:57;100079.19;;;9.97;72.70
45813;BME280;31519;45.408;10.962;2022-11-20T04:47:26;100081.69;;;10.02;71.95
45813;BME280;31519;45.408;10.962;2022-11-20T04:49:54;100076.94;;;9.82;73.01
45813;BME280;31519;45.408;10.962;2022-11-20T04:52:22;100079.28;;;9.83;73.77
45813;BME280;31519;45.408;10.962;2022-11-20T04:54:50;100074.38;;;9.68;73.92
45813;BME280;31519;45.408;10.962;2022-11-20T04:57:20;100077.59;;;9.96;73.17
45813;BME280;31519;45.408;10.962;2022-11-20T04:59:48;100080.97;;;9.62;74.25
45813;BME280;31519;45.408;10.962;2022-11-20T05:02:16;100083.63;;;9.62;74.51
45813;BME280;31519;45.408;10.962;2022-11-20T05:04:44;100085.81;;;9.68;74.68
45813;BME280;31519;45.408;10.962;2022-11-20T05:07:12;100092.22;;;9.67;74.76
45813;BME280;31519;45.408;10.962;2022-11-20T05:09:41;100093.78;;;9.68;74.38
45813;BME280;31519;45.408;10.962;2022-11-20T05:12:09;100094.63;;;9.86;73.88
45813;BME280;31519;45.408;10.962;2022-11-20T05:14:37;100091.81;;;9.83;74.43
45813;BME280;31519;45.408;10.962;2022-11-20T05:17:06;100089.41;;;9.72;74.79
45813;BME280;31519;45.408;10.962;2022-11-20T05:19:35;100099.22;;;9.55;75.21
45813;BME280;31519;45.408;10.962;2022-11-20T05:22:04;100102.84;;;9.67;74.80
45813;BME280;31519;45.408;10.962;2022-11-20T05:24:34;100100.81;;;9.64;74.76
45813;BME280;31519;45.408;10.962;2022-11-20T05:27:02;100097.47;;;9.50;75.08
45813;BME280;31519;45.408;10.962;2022-11-20T05:29:30;100105.50;;;9.06;76.91
45813;BME280;31519;45.408;10.962;2022-11-20T05:31:58;100100.03;;;9.02;77.49
45813;BME280;31519;45.408;10.962;2022-11-20T05:34:26;100106.97;;;9.12;76.94
45813;BME280;31519;45.408;10.962;2022-11-20T05:36:54;100116.06;;;9.19;76.63
45813;BME280;31519;45.408;10.962;2022-11-20T05:39:22;100112.97;;;9.26;76.37
45813;BME280;31519;45.408;10.962;2022-11-20T05:41:50;100116.53;;;9.44;76.03
45813;BME280;31519;45.408;10.962;2022-11-20T05:44:41;100117.38;;;9.30;75.85
45813;BME280;31519;45.408;10.962;2022-11-20T05:47:09;100125.50;;;9.25;76.83
45813;BME280;31519;45.408;10.962;2022-11-20T05:49:38;100126.88;;;9.23;76.85
45813;BME280;31519;45.408;10.962;2022-11-20T05:52:06;100130.44;;;9.18;77.06
45813;BME280;31519;45.408;10.962;2022-11-20T05:54:35;100134.56;;;9.24;77.22
45813;BME280;31519;45.408;10.962;2022-11-20T05:57:04;100133.81;;;9.32;76.76
45813;BME280;31519;45.408;10.962;2022-11-20T05:59:32;100132.81;;;9.20;77.14
45813;BME280;31519;45.408;10.962;2022-11-20T06:02:00;100137.94;;;9.16;77.44
45813;BME280;31519;45.408;10.962;2022-11-20T06:04:28;100135.50;;;9.28;76.81
45813;BME280;31519;45.408;10.962;2022-11-20T06:06:56;100143.94;;;9.30;76.45
45813;BME280;31519;45.408;10.962;2022-11-20T06:09:24;100163.16;;;9.05;77.10
45813;BME280;31519;45.408;10.962;2022-11-20T06:11:52;100156.41;;;8.99;78.13
45813;BME280;31519;45.408;10.962;2022-11-20T06:14:21;100153.69;;;9.13;77.79
45813;BME280;31519;45.408;10.962;2022-11-20T06:16:48;100156.09;;;9.45;77.11
45813;BME280;31519;45.408;10.962;2022-11-20T06:19:17;100159.44;;;9.28;76.02
45813;BME280;31519;45.408;10.962;2022-11-20T06:21:48;100155.31;;;9.22;77.21
45813;BME280;31519;45.408;10.962;2022-11-20T06:24:17;100162.22;;;9.23;77.43
45813;BME280;31519;45.408;10.962;2022-11-20T06:26:45;100166.91;;;9.26;77.51
45813;BME280;31519;45.408;10.962;2022-11-20T06:29:13;100172.53;;;9.25;76.72
45813;BME280;31519;45.408;10.962;2022-11-20T06:31:41;100167.81;;;9.22;75.74
45813;BME280;31519;45.408;10.962;2022-11-20T06:34:10;100181.53;;;9.15;75.58
45813;BME280;31519;45.408;10.962;2022-11-20T06:36:38;100188.13;;;9.18;76.25
45813;BME280;31519;45.408;10.962;2022-11-20T06:39:07;100181.94;;;9.31;75.46
45813;BME280;31519;45.408;10.962;2022-11-20T06:41:36;100183.22;;;9.11;76.12
45813;BME280;31519;45.408;10.962;2022-11-20T06:44:05;100184.03;;;9.12;75.70
45813;BME280;31519;45.408;10.962;2022-11-20T06:46:33;100188.06;;;9.09;75.36
45813;BME280;31519;45.408;10.962;2022-11-20T06:49:02;100193.03;;;9.24;74.70
45813;BME280;31519;45.408;10.962;2022-11-20T06:51:30;100192.09;;;9.29;74.15
45813;BME280;31519;45.408;10.962;2022-11-20T06:53:58;100189.00;;;9.35;73.22
45813;BME280;31519;45.408;10.962;2022-11-20T06:56:28;100202.06;;;9.23;73.21
45813;BME280;31519;45.408;10.962;2022-11-20T06:58:58;100208.91;;;9.16;72.68
45813;BME280;31519;45.408;10.962;2022-11-20T07:01:26;100208.13;;;9.15;72.95
45813;BME280;31519;45.408;10.962;2022-11-20T07:03:55;100211.38;;;9.34;72.56
45813;BME280;31519;45.408;10.962;2022-11-20T07:06:23;100218.91;;;9.41;71.58
45813;BME280;31519;45.408;10.962;2022-11-20T07:08:51;100216.03;;;9.51;69.94
45813;BME280;31519;45.408;10.962;2022-11-20T07:11:20;100215.91;;;9.56;68.98
45813;BME280;31519;45.408;10.962;2022-11-20T07:13:50;100215.22;;;9.51;68.53
45813;BME280;31519;45.408;10.962;2022-11-20T07:16:18;100218.78;;;9.68;68.12
45813;BME280;31519;45.408;10.962;2022-11-20T07:18:47;100232.41;;;9.67;67.82
45813;BME280;31519;45.408;10.962;2022-11-20T07:21:17;100220.38;;;10.40;66.25
45813;BME280;31519;45.408;10.962;2022-11-20T07:23:46;100217.44;;;11.79;60.92
45813;BME280;31519;45.408;10.962;2022-11-20T07:26:14;100235.28;;;12.92;57.82
45813;BME280;31519;45.408;10.962;2022-11-20T07:28:44;100232.19;;;13.44;54.62
45813;BME280;31519;45.408;10.962;2022-11-20T07:31:13;100236.66;;;13.85;53.79
45813;BME280;31519;45.408;10.962;2022-11-20T07:33:47;100240.81;;;13.08;54.02
45813;BME280;31519;45.408;10.962;2022-11-20T07:36:16;100237.66;;;11.88;57.60
45813;BME280;31519;45.408;10.962;2022-11-20T07:38:44;100230.47;;;11.80;58.65
45813;BME280;31519;45.408;10.962;2022-11-20T07:41:12;100232.22;;;11.68;59.35
45813;BME280;31519;45.408;10.962;2022-11-20T07:43:44;100235.81;;;11.63;58.95
45813;BME280;31519;45.408;10.962;2022-11-20T07:46:12;100243.84;;;11.54;59.38
45813;BME280;31519;45.408;10.962;2022-11-20T07:48:40;100244.94;;;11.45;58.82
45813;BME280;31519;45.408;10.962;2022-11-20T07:51:08;100238.16;;;11.82;58.20
45813;BME280;31519;45.408;10.962;2022-11-20T07:53:37;100240.31;;;11.97;57.85
45813;BME280;31519;45.408;10.962;2022-11-20T07:56:05;100243.81;;;12.27;56.61
45813;BME280;31519;45.408;10.962;2022-11-20T07:58:34;100247.50;;;12.43;55.54
45813;BME280;31519;45.408;10.962;2022-11-20T08:01:04;100245.03;;;12.67;55.05
45813;BME280;31519;45.408;10.962;2022-11-20T08:03:33;100249.03;;;12.82;55.53
45813;BME280;31519;45.408;10.962;2022-11-20T08:06:01;100251.03;;;12.85;54.76
45813;BME280;31519;45.408;10.962;2022-11-20T08:08:30;100254.50;;;13.15;54.07
45813;BME280;31519;45.408;10.962;2022-11-20T08:11:01;100261.00;;;13.26;54.25
45813;BME280;31519;45.408;10.962;2022-11-20T08:13:48;100262.94;;;13.58;53.56
45813;BME280;31519;45.408;10.962;2022-11-20T08:16:35;100262.22;;;13.82;53.42
45813;BME280;31519;45.408;10.962;2022-11-20T08:19:03;100264.59;;;13.84;53.69
45813;BME280;31519;45.408;10.962;2022-11-20T08:21:32;100269.97;;;14.08;52.10
45813;BME280;31519;45.408;10.962;2022-11-20T08:24:07;100262.50;;;14.13;51.21
45813;BME280;31519;45.408;10.962;2022-11-20T08:26:37;100262.78;;;14.69;50.79
45813;BME280;31519;45.408;10.962;2022-11-20T08:29:06;100264.56;;;14.41;50.98
45813;BME280;31519;45.408;10.962;2022-11-20T08:31:35;100263.22;;;14.59;51.10
45813;BME280;31519;45.408;10.962;2022-11-20T08:34:23;100257.16;;;14.86;50.05
45813;BME280;31519;45.408;10.962;2022-11-20T08:36:51;100258.28;;;14.85;50.18
45813;BME280;31519;45.408;10.962;2022-11-20T08:39:20;100256.34;;;15.10;49.08
45813;BME280;31519;45.408;10.962;2022-11-20T08:41:48;100263.38;;;15.15;49.41
45813;BME280;31519;45.408;10.962;2022-11-20T08:44:17;100263.22;;;15.23;48.44
45813;BME280;31519;45.408;10.962;2022-11-20T08:46:45;100273.25;;;15.38;47.92
45813;BME280;31519;45.408;10.962;2022-11-20T08:49:15;100268.31;;;15.68;46.95
45813;BME280;31519;45.408;10.962;2022-11-20T08:51:44;100269.59;;;15.59;47.25
45813;BME280;31519;45.408;10.962;2022-11-20T08:54:13;100276.50;;;15.87;47.33
45813;BME280;31519;45.408;10.962;2022-11-20T08:56:41;100283.56;;;16.23;46.37
45813;BME280;31519;45.408;10.962;2022-11-20T08:59:09;100280.81;;;16.35;46.12
45813;BME280;31519;45.408;10.962;2022-11-20T09:01:58;100289.22;;;16.50;45.37
45813;BME280;31519;45.408;10.962;2022-11-20T09:04:26;100292.03;;;16.88;44.06
45813;BME280;31519;45.408;10.962;2022-11-20T09:06:54;100292.97;;;16.96;43.43
45813;BME280;31519;45.408;10.962;2022-11-20T09:09:23;100290.31;;;17.15;43.30
45813;BME280;31519;45.408;10.962;2022-11-20T09:11:52;100291.03;;;16.77;43.61
45813;BME280;31519;45.408;10.962;2022-11-20T09:14:21;100295.00;;;16.83;43.49
45813;BME280;31519;45.408;10.962;2022-11-20T09:16:49;100295.78;;;16.83;43.02
45813;BME280;31519;45.408;10.962;2022-11-20T09:19:18;100298.06;;;16.66;42.40
45813;BME280;31519;45.408;10.962;2022-11-20T09:22:02;100298.84;;;17.01;42.49
45813;BME280;31519;45.408;10.962;2022-11-20T09:24:31;100295.50;;;17.43;42.52
45813;BME280;31519;45.408;10.962;2022-11-20T09:27:02;100299.19;;;17.35;42.78
45813;BME280;31519;45.408;10.962;2022-11-20T09:29:31;100298.66;;;17.64;40.26
45813;BME280;31519;45.408;10.962;2022-11-20T09:31:59;100300.81;;;18.20;38.69
45813;BME280;31519;45.408;10.962;2022-11-20T09:34:27;100295.63;;;17.88;37.86
45813;BME280;31519;45.408;10.962;2022-11-20T09:36:55;100294.88;;;18.10;37.80
45813;BME280;31519;45.408;10.962;2022-11-20T09:39:26;100296.91;;;17.94;38.11
45813;BME280;31519;45.408;10.962;2022-11-20T09:42:15;100299.06;;;17.66;38.66
45813;BME280;31519;45.408;10.962;2022-11-20T09:44:55;100303.59;;;18.23;38.30
45813;BME280;31519;45.408;10.962;2022-11-20T09:50:45;100302.94;;;17.30;40.15
45813;BME280;31519;45.408;10.962;2022-11-20T09:56:09;100294.47;;;18.08;40.42
45813;BME280;31519;45.408;10.962;2022-11-20T09:58:50;100296.88;;;18.59;40.00
45813;BME280;31519;45.408;10.962;2022-11-20T10:01:28;100292.47;;;18.74;39.77
45813;BME280;31519;45.408;10.962;2022-11-20T10:04:10;100285.81;;;17.77;42.82
45813;BME280;31519;45.408;10.962;2022-11-20T10:09:54;100283.31;;;18.33;43.16
45813;BME280;31519;45.408;10.962;2022-11-20T10:15:23;100276.38;;;18.54;43.00
45813;BME280;31519;45.408;10.962;2022-11-20T10:24:06;100269.09;;;18.58;44.16
45813;BME280;31519;45.408;10.962;2022-11-20T10:26:55;100270.38;;;18.65;43.59
45813;BME280;31519;45.408;10.962;2022-11-20T10:29:33;100275.94;;;19.68;42.32
45813;BME280;31519;45.408;10.962;2022-11-20T10:32:07;100275.38;;;19.22;43.00
45813;BME280;31519;45.408;10.962;2022-11-20T10:34:57;100279.94;;;19.48;42.19
45813;BME280;31519;45.408;10.962;2022-11-20T10:37:27;100266.84;;;19.20;41.94
45813;BME280;31519;45.408;10.962;2022-11-20T10:42:58;100274.94;;;19.83;41.45
45813;BME280;31519;45.408;10.962;2022-11-20T10:45:36;100264.09;;;20.24;40.26
45813;BME280;31519;45.408;10.962;2022-11-20T10:50:57;100258.66;;;20.68;40.82
45813;BME280;31519;45.408;10.962;2022-11-20T10:53:54;100256.09;;;19.54;42.03
45813;BME280;31519;45.408;10.962;2022-11-20T10:56:24;100250.06;;;20.55;40.92
45813;BME280;31519;45.408;10.962;2022-11-20T10:59:18;100244.94;;;19.96;41.88
45813;BME280;31519;45.408;10.962;2022-11-20T11:01:53;100246.41;;;19.49;43.14
45813;BME280;31519;45.408;10.962;2022-11-20T11:04:38;100249.13;;;19.19;43.18
45813;BME280;31519;45.408;10.962;2022-11-20T11:07:29;100265.84;;;18.72;43.86
45813;BME280;31519;45.408;10.962;2022-11-20T11:09:58;100249.75;;;18.53;44.22
45813;BME280;31519;45.408;10.962;2022-11-20T11:12:28;100254.97;;;18.65;44.48
45813;BME280;31519;45.408;10.962;2022-11-20T11:14:57;100250.47;;;18.76;43.36
45813;BME280;31519;45.408;10.962;2022-11-20T11:17:28;100247.13;;;19.16;42.64
45813;BME280;31519;45.408;10.962;2022-11-20T11:20:13;100243.47;;;20.05;41.94
45813;BME280;31519;45.408;10.962;2022-11-20T11:25:55;100236.00;;;19.88;41.29
45813;BME280;31519;45.408;10.962;2022-11-20T11:28:21;100236.34;;;19.46;42.41
45813;BME280;31519;45.408;10.962;2022-11-20T11:30:53;100235.28;;;18.65;44.02
45813;BME280;31519;45.408;10.962;2022-11-20T11:33:26;100234.06;;;18.88;44.45
45813;BME280;31519;45.408;10.962;2022-11-20T11:35:56;100235.69;;;19.56;42.76
45813;BME280;31519;45.408;10.962;2022-11-20T11:38:39;100225.94;;;20.98;40.03
45813;BME280;31519;45.408;10.962;2022-11-20T11:41:24;100229.38;;;20.88;43.13
45813;BME280;31519;45.408;10.962;2022-11-20T11:44:15;100227.28;;;20.60;43.70
45813;BME280;31519;45.408;10.962;2022-11-20T11:47:04;100225.38;;;20.13;45.55
45813;BME280;31519;45.408;10.962;2022-11-20T11:49:34;100223.25;;;20.98;44.08
45813;BME280;31519;45.408;10.962;2022-11-20T11:52:15;100221.09;;;20.08;46.08
45813;BME280;31519;45.408;10.962;2022-11-20T11:54:57;100217.25;;;19.32;47.75
45813;BME280;31519;45.408;10.962;2022-11-20T12:00:12;100213.44;;;19.73;48.28
45813;BME280;31519;45.408;10.962;2022-11-20T12:05:24;100226.06;;;20.54;45.55
45813;BME280;31519;45.408;10.962;2022-11-20T12:13:26;100213.00;;;19.68;47.08
45813;BME280;31519;45.408;10.962;2022-11-20T12:15:59;100209.34;;;19.90;46.72
45813;BME280;31519;45.408;10.962;2022-11-20T12:18:28;100211.34;;;19.23;48.44
45813;BME280;31519;45.408;10.962;2022-11-20T12:21:19;100209.25;;;20.23;46.29
45813;BME280;31519;45.408;10.962;2022-11-20T12:35:07;100205.66;;;18.68;48.04
45813;BME280;31519;45.408;10.962;2022-11-20T12:43:21;100190.56;;;20.08;45.58
45813;BME280;31519;45.408;10.962;2022-11-20T13:08:25;100192.53;;;20.07;43.55
45813;BME280;31519;45.408;10.962;2022-11-20T13:13:53;100200.38;;;19.09;44.76
45813;BME280;31519;45.408;10.962;2022-11-20T13:16:36;100190.47;;;18.86;44.25
45813;BME280;31519;45.408;10.962;2022-11-20T13:19:11;100182.34;;;19.50;43.24
45813;BME280;31519;45.408;10.962;2022-11-20T13:21:48;100183.91;;;19.95;41.32
45813;BME280;31519;45.408;10.962;2022-11-20T13:26:48;100183.19;;;20.56;39.98
45813;BME280;31519;45.408;10.962;2022-11-20T13:29:27;100170.31;;;18.77;42.94
45813;BME280;31519;45.408;10.962;2022-11-20T13:32:21;100177.09;;;19.30;42.53
45813;BME280;31519;45.408;10.962;2022-11-20T13:34:55;100169.09;;;19.04;42.70
45813;BME280;31519;45.408;10.962;2022-11-20T13:42:45;100159.78;;;19.75;41.16
45813;BME280;31519;45.408;10.962;2022-11-20T13:45:25;100167.06;;;18.97;42.76
45813;BME280;31519;45.408;10.962;2022-11-20T13:47:56;100158.28;;;19.78;41.10
45813;BME280;31519;45.408;10.962;2022-11-20T13:53:27;100163.09;;;21.93;37.47
45813;BME280;31519;45.408;10.962;2022-11-20T13:56:40;100175.63;;;19.73;41.31
45813;BME280;31519;45.408;10.962;2022-11-20T13:59:38;100166.59;;;19.22;42.68
45813;BME280;31519;45.408;10.962;2022-11-20T14:02:16;100165.97;;;20.27;40.71
45813;BME280;31519;45.408;10.962;2022-11-20T14:04:48;100168.31;;;20.97;39.20
45813;BME280;31519;45.408;10.962;2022-11-20T14:07:19;100167.69;;;21.39;38.31
45813;BME280;31519;45.408;10.962;2022-11-20T14:09:53;100176.25;;;21.77;37.38
45813;BME280;31519;45.408;10.962;2022-11-20T14:12:31;100162.38;;;23.11;34.26
45813;BME280;31519;45.408;10.962;2022-11-20T14:14:59;100173.19;;;23.84;33.71
45813;BME280;31519;45.408;10.962;2022-11-20T14:17:33;100174.66;;;23.40;33.72
45813;BME280;31519;45.408;10.962;2022-11-20T14:20:07;100172.22;;;22.84;35.18
45813;BME280;31519;45.408;10.962;2022-11-20T14:22:50;100173.72;;;24.13;33.68
45813;BME280;31519;45.408;10.962;2022-11-20T14:25:21;100164.69;;;25.25;31.47
45813;BME280;31519;45.408;10.962;2022-11-20T14:27:53;100162.59;;;24.41;32.74
45813;BME280;31519;45.408;10.962;2022-11-20T14:30:28;100161.38;;;24.46;32.62
45813;BME280;31519;45.408;10.962;2022-11-20T14:33:01;100157.19;;;23.38;33.72
45813;BME280;31519;45.408;10.962;2022-11-20T14:35:33;100157.16;;;23.49;34.08
45813;BME280;31519;45.408;10.962;2022-11-20T14:38:03;100153.69;;;23.41;34.33
45813;BME280;31519;45.408;10.962;2022-11-20T14:40:35;100155.94;;;22.80;35.27